Time;durP1;ratioP1;P1;durP2;ratioP2;P2;SDS_P1;SDS_P2;PMS_P1;PMS_P2;Temp;Humidity;BMP_temperature;BMP_pressure;BME280_temperature;BME280_humidity;BME280_pressure;Samples;Min_cycle;Max_cycle;Signal;HPM_P1;HPM_P2
2023/04/21 00:03:59;;;;;;;;;;;18.70;48.40;;;;;;10328703;28;894;-66
2023/04/21 00:08:55;;;;;;;;;;;18.60;48.40;;;;;;10327469;28;1792;-66
2023/04/21 00:13:50;;;;;;;;;;;18.70;48.50;;;;;;10327807;28;1910;-67
2023/04/21 00:18:46;;;;;;;;;;;18.70;48.40;;;;;;10328120;28;840;-66
2023/04/21 00:23:42;;;;;;;;;;;18.70;48.50;;;;;;10327922;28;953;-66
2023/04/21 00:28:37;;;;;;;;;;;18.60;48.40;;;;;;10327659;28;802;-66
2023/04/21 00:33:32;;;;;;;;;;;18.60;48.40;;;;;;10328101;28;1898;-66
2023/04/21 00:38:28;;;;;;;;;;;18.60;48.40;;;;;;10327792;28;853;-66
2023/04/21 00:43:24;;;;;;;;;;;18.60;48.40;;;;;;10326988;28;924;-67
2023/04/21 00:48:20;;;;;;;;;;;18.60;48.40;;;;;;10327491;28;770;-66
2023/04/21 00:53:15;;;;;;;;;;;18.60;48.40;;;;;;10327277;28;1906;-66
2023/04/21 00:58:10;;;;;;;;;;;18.60;48.40;;;;;;10327923;28;1948;-66
2023/04/21 01:03:06;;;;;;;;;;;18.60;48.40;;;;;;10326334;28;902;-66
2023/04/21 01:08:02;;;;;;;;;;;18.60;48.40;;;;;;10326990;28;856;-66
2023/04/21 01:12:57;;;;;;;;;;;18.50;48.40;;;;;;10326075;28;1913;-66
2023/04/21 01:17:53;;;;;;;;;;;18.50;48.40;;;;;;10326375;28;884;-66
2023/04/21 01:22:50;;;;;;;;;;;18.60;48.40;;;;;;10325385;28;1134;-66
2023/04/21 01:27:45;;;;;;;;;;;18.50;48.40;;;;;;10325309;28;925;-66
2023/04/21 01:32:40;;;;;;;;;;;18.50;48.40;;;;;;10325577;28;1959;-66
2023/04/21 01:37:36;;;;;;;;;;;18.50;48.40;;;;;;10326150;28;798;-66
2023/04/21 01:42:31;;;;;;;;;;;18.50;48.40;;;;;;10326584;28;833;-66
2023/04/21 01:47:27;;;;;;;;;;;18.50;48.40;;;;;;10325512;28;854;-66
2023/04/21 01:52:22;;;;;;;;;;;18.50;48.40;;;;;;10325121;28;1906;-66
2023/04/21 01:57:17;;;;;;;;;;;18.50;48.50;;;;;;10325601;28;1317;-66
2023/04/21 02:02:13;;;;;;;;;;;18.50;48.50;;;;;;10325611;28;845;-66
2023/04/21 02:07:08;;;;;;;;;;;18.50;48.50;;;;;;10325481;28;886;-66
2023/04/21 02:12:03;;;;;;;;;;;18.50;48.50;;;;;;10324866;28;877;-66
2023/04/21 02:16:59;;;;;;;;;;;18.50;48.50;;;;;;10324659;28;1898;-66
2023/04/21 02:21:54;;;;;;;;;;;18.50;48.40;;;;;;10324606;28;878;-66
2023/04/21 02:26:50;;;;;;;;;;;18.50;48.50;;;;;;10324929;28;765;-66
2023/04/21 02:31:45;;;;;;;;;;;18.50;48.40;;;;;;10329089;28;771;-66
2023/04/21 02:36:40;;;;;;;;;;;18.40;48.40;;;;;;10332818;28;1906;-66
2023/04/21 02:41:36;;;;;;;;;;;18.40;48.40;;;;;;10331967;28;948;-66
2023/04/21 02:46:31;;;;;;;;;;;18.40;48.40;;;;;;10332251;28;959;-66
2023/04/21 02:51:27;;;;;;;;;;;18.40;48.40;;;;;;10332153;28;849;-66
2023/04/21 02:56:22;;;;;;;;;;;18.40;48.40;;;;;;10331423;28;2035;-66
2023/04/21 03:01:17;;;;;;;;;;;18.40;48.50;;;;;;10331128;28;779;-66
2023/04/21 03:06:13;;;;;;;;;;;18.40;48.40;;;;;;10331016;28;959;-66
2023/04/21 03:11:08;;;;;;;;;;;18.40;48.40;;;;;;10331028;28;869;-66
2023/04/21 03:16:03;;;;;;;;;;;18.40;48.40;;;;;;10330725;28;1987;-66
2023/04/21 03:21:00;;;;;;;;;;;18.40;48.40;;;;;;10330438;28;871;-66
2023/04/21 03:25:55;;;;;;;;;;;18.40;48.40;;;;;;10330958;28;904;-66
2023/04/21 03:30:51;;;;;;;;;;;18.40;48.50;;;;;;10330044;28;850;-66
2023/04/21 03:35:46;;;;;;;;;;;18.40;48.40;;;;;;10330169;28;1902;-66
2023/04/21 03:40:41;;;;;;;;;;;18.30;48.40;;;;;;10329687;28;758;-66
2023/04/21 03:45:37;;;;;;;;;;;18.40;48.40;;;;;;10330161;28;848;-66
2023/04/21 03:50:32;;;;;;;;;;;18.40;48.40;;;;;;10329314;28;857;-66
2023/04/21 03:55:27;;;;;;;;;;;18.40;48.30;;;;;;10328696;28;1870;-66
2023/04/21 04:00:23;;;;;;;;;;;18.40;48.30;;;;;;10328332;28;948;-66
2023/04/21 04:05:18;;;;;;;;;;;18.50;48.30;;;;;;10329378;28;938;-66
2023/04/21 04:10:13;;;;;;;;;;;18.50;48.20;;;;;;10329131;28;868;-66
2023/04/21 04:15:09;;;;;;;;;;;18.40;48.20;;;;;;10328257;28;1968;-66
2023/04/21 04:20:05;;;;;;;;;;;18.50;48.30;;;;;;10328087;28;1106;-66
2023/04/21 04:25:00;;;;;;;;;;;18.50;48.30;;;;;;10328361;28;898;-66
2023/04/21 04:29:56;;;;;;;;;;;18.40;48.30;;;;;;10328302;28;862;-66
2023/04/21 04:34:51;;;;;;;;;;;18.50;48.30;;;;;;10327454;28;1902;-66
2023/04/21 04:39:47;;;;;;;;;;;18.50;48.20;;;;;;10327939;28;814;-66
2023/04/21 04:44:43;;;;;;;;;;;18.50;48.20;;;;;;10327075;28;762;-66
2023/04/21 04:49:38;;;;;;;;;;;18.60;48.10;;;;;;10327507;28;845;-66
2023/04/21 04:54:34;;;;;;;;;;;18.60;48.20;;;;;;10326396;28;1897;-67
2023/04/21 04:59:30;;;;;;;;;;;18.60;48.10;;;;;;10327298;28;870;-66
2023/04/21 05:04:25;;;;;;;;;;;18.60;48.10;;;;;;10326438;28;806;-66
2023/04/21 05:09:20;;;;;;;;;;;18.60;48.10;;;;;;10327007;28;919;-66
2023/04/21 05:14:16;;;;;;;;;;;18.60;48.10;;;;;;10326059;28;1910;-66
2023/04/21 05:19:11;;;;;;;;;;;18.60;48.10;;;;;;10326679;28;884;-66
2023/04/21 05:24:06;;;;;;;;;;;18.60;48.10;;;;;;10326605;28;826;-66
2023/04/21 05:29:02;;;;;;;;;;;18.60;48.10;;;;;;10325268;28;902;-66
2023/04/21 05:33:57;;;;;;;;;;;18.60;48.10;;;;;;10325011;28;2022;-66
2023/04/21 05:38:53;;;;;;;;;;;18.60;48.10;;;;;;10326124;28;925;-66
2023/04/21 05:43:49;;;;;;;;;;;18.60;48.10;;;;;;10325390;28;865;-67
2023/04/21 05:48:44;;;;;;;;;;;18.70;48.10;;;;;;10325912;28;850;-66
2023/04/21 05:53:40;;;;;;;;;;;18.60;48.00;;;;;;10325180;28;1906;-65
2023/04/21 05:58:35;;;;;;;;;;;18.60;48.10;;;;;;10324572;28;1274;-66
2023/04/21 06:03:31;;;;;;;;;;;18.60;48.20;;;;;;10325023;28;853;-66
2023/04/21 06:08:26;;;;;;;;;;;18.60;48.10;;;;;;10332854;28;866;-67
2023/04/21 06:13:21;;;;;;;;;;;18.70;48.20;;;;;;10334120;28;1981;-67
2023/04/21 06:18:17;;;;;;;;;;;18.70;48.30;;;;;;10334115;28;838;-66
2023/04/21 06:23:12;;;;;;;;;;;18.60;48.30;;;;;;10332024;28;1483;-66
2023/04/21 06:28:07;;;;;;;;;;;18.60;48.20;;;;;;10332379;28;886;-73
2023/04/21 06:33:03;;;;;;;;;;;18.70;48.30;;;;;;10332242;28;1906;-66
2023/04/21 06:37:58;;;;;;;;;;;18.60;48.40;;;;;;10333310;28;786;-66
2023/04/21 06:42:54;;;;;;;;;;;18.70;48.40;;;;;;10328801;28;1184;-67
2023/04/21 06:47:49;;;;;;;;;;;18.70;48.40;;;;;;10331386;28;943;-66
2023/04/21 06:52:45;;;;;;;;;;;18.70;48.30;;;;;;10331552;28;1963;-66
2023/04/21 06:57:40;;;;;;;;;;;18.80;48.30;;;;;;10331758;28;1222;-66
2023/04/21 07:02:35;;;;;;;;;;;18.80;48.30;;;;;;10331141;28;937;-66
2023/04/21 07:07:31;;;;;;;;;;;18.70;48.40;;;;;;10330443;28;1051;-67
2023/04/21 07:12:26;;;;;;;;;;;18.70;48.50;;;;;;10330891;28;761;-66
2023/04/21 07:17:22;;;;;;;;;;;18.80;48.50;;;;;;10330104;28;1914;-66
2023/04/21 07:22:17;;;;;;;;;;;18.70;48.50;;;;;;10330498;28;794;-66
2023/04/21 07:27:12;;;;;;;;;;;18.70;48.60;;;;;;10330260;28;849;-66
2023/04/21 07:32:08;;;;;;;;;;;18.70;48.50;;;;;;10330131;28;761;-66
2023/04/21 07:37:03;;;;;;;;;;;18.70;48.50;;;;;;10330453;28;1910;-66
2023/04/21 07:41:59;;;;;;;;;;;18.70;48.50;;;;;;10330378;28;806;-66
2023/04/21 07:46:54;;;;;;;;;;;18.70;48.50;;;;;;10330108;28;839;-70
2023/04/21 07:51:50;;;;;;;;;;;18.70;48.50;;;;;;10329264;28;949;-66
2023/04/21 07:56:45;;;;;;;;;;;18.80;48.60;;;;;;10329578;28;1906;-66
2023/04/21 08:01:40;;;;;;;;;;;18.80;48.70;;;;;;10329039;28;899;-66
2023/04/21 08:06:36;;;;;;;;;;;18.80;48.70;;;;;;10328766;28;873;-67
2023/04/21 08:11:31;;;;;;;;;;;18.70;48.50;;;;;;10328201;28;876;-67
2023/04/21 08:16:26;;;;;;;;;;;18.70;48.60;;;;;;10328854;28;1977;-67
2023/04/21 08:21:22;;;;;;;;;;;18.80;48.70;;;;;;10327652;28;980;-66
2023/04/21 08:26:20;;;;;;;;;;;18.80;48.70;;;;;;10327621;28;883;-67
2023/04/21 08:31:15;;;;;;;;;;;18.80;48.70;;;;;;10327125;28;871;-67
2023/04/21 08:36:11;;;;;;;;;;;18.80;48.80;;;;;;10326845;28;1906;-67
2023/04/21 08:41:06;;;;;;;;;;;18.80;48.90;;;;;;10327324;28;778;-66
2023/04/21 08:46:02;;;;;;;;;;;18.80;48.90;;;;;;10327709;28;846;-66
2023/04/21 08:50:57;;;;;;;;;;;18.90;49.00;;;;;;10326345;28;923;-68
2023/04/21 08:55:53;;;;;;;;;;;18.90;49.00;;;;;;10327417;28;1913;-67
2023/04/21 09:00:48;;;;;;;;;;;18.80;49.10;;;;;;10326524;28;1617;-66
2023/04/21 09:05:43;;;;;;;;;;;18.80;49.00;;;;;;10327040;28;773;-66
2023/04/21 09:10:39;;;;;;;;;;;18.80;48.90;;;;;;10326303;28;806;-66
2023/04/21 09:15:34;;;;;;;;;;;18.80;48.90;;;;;;10326708;28;1977;-66
2023/04/21 09:20:30;;;;;;;;;;;18.80;48.90;;;;;;10326329;28;838;-66
2023/04/21 09:25:25;;;;;;;;;;;18.80;48.70;;;;;;10326476;28;941;-67
2023/04/21 09:30:21;;;;;;;;;;;18.80;48.90;;;;;;10325740;28;843;-66
2023/04/21 09:35:16;;;;;;;;;;;18.80;48.80;;;;;;10325539;28;1906;-66
2023/04/21 09:40:12;;;;;;;;;;;18.80;48.90;;;;;;10325357;28;874;-66
2023/04/21 09:45:08;;;;;;;;;;;18.80;48.80;;;;;;10325467;28;776;-66
2023/04/21 09:50:04;;;;;;;;;;;18.80;48.90;;;;;;10325409;28;869;-66
2023/04/21 09:55:00;;;;;;;;;;;18.80;48.90;;;;;;10324942;28;1902;-66
2023/04/21 09:59:56;;;;;;;;;;;18.80;49.50;;;;;;10326368;28;801;-67
2023/04/21 10:04:51;;;;;;;;;;;18.90;48.90;;;;;;10326121;28;1702;-66
2023/04/21 10:09:46;;;;;;;;;;;18.80;48.90;;;;;;10324397;28;1185;-66
2023/04/21 10:14:42;;;;;;;;;;;18.90;48.90;;;;;;10325132;28;1973;-66
2023/04/21 10:19:40;;;;;;;;;;;18.80;48.90;;;;;;10325369;28;861;-66
2023/04/21 10:24:37;;;;;;;;;;;18.90;48.80;;;;;;10324748;28;773;-66
2023/04/21 10:29:32;;;;;;;;;;;18.90;48.80;;;;;;10324466;28;838;-67
2023/04/21 10:34:27;;;;;;;;;;;18.90;48.80;;;;;;10325003;28;1961;-67
2023/04/21 10:39:23;;;;;;;;;;;18.90;48.90;;;;;;10325082;28;975;-67
2023/04/21 10:44:18;;;;;;;;;;;18.80;48.90;;;;;;10324317;28;878;-66
2023/04/21 10:49:14;;;;;;;;;;;18.80;48.90;;;;;;10325396;28;905;-66
2023/04/21 10:54:09;;;;;;;;;;;18.90;48.90;;;;;;10330913;28;1967;-66
2023/04/21 10:59:05;;;;;;;;;;;18.90;48.90;;;;;;10331261;28;1427;-66
2023/04/21 11:04:00;;;;;;;;;;;18.90;48.90;;;;;;10331221;28;851;-66
2023/04/21 11:08:56;;;;;;;;;;;18.90;49.10;;;;;;10331102;28;789;-66
2023/04/21 11:13:51;;;;;;;;;;;18.90;49.20;;;;;;10331282;28;1984;-66
2023/04/21 11:18:46;;;;;;;;;;;18.90;49.30;;;;;;10331288;28;890;-66
2023/04/21 11:23:42;;;;;;;;;;;18.90;49.30;;;;;;10330629;28;806;-67
2023/04/21 11:28:37;;;;;;;;;;;18.90;49.60;;;;;;10330263;28;957;-67
2023/04/21 11:33:33;;;;;;;;;;;18.90;49.60;;;;;;10330707;28;1971;-66
2023/04/21 11:38:28;;;;;;;;;;;18.90;49.60;;;;;;10330457;28;960;-66
2023/04/21 11:43:23;;;;;;;;;;;18.90;49.50;;;;;;10329728;28;790;-66
2023/04/21 11:48:19;;;;;;;;;;;19.00;49.70;;;;;;10329552;28;826;-66
2023/04/21 11:53:14;;;;;;;;;;;18.90;49.60;;;;;;10329517;28;1910;-68
2023/04/21 11:58:11;;;;;;;;;;;18.90;49.70;;;;;;10330101;28;1185;-68
2023/04/21 12:03:06;;;;;;;;;;;18.80;49.60;;;;;;10327686;28;893;-68
2023/04/21 12:08:03;;;;;;;;;;;18.80;49.90;;;;;;10328685;28;786;-68
2023/04/21 12:12:59;;;;;;;;;;;18.90;50.40;;;;;;10328425;28;1973;-68
2023/04/21 12:17:55;;;;;;;;;;;18.90;50.40;;;;;;10328446;28;846;-70
2023/04/21 12:22:51;;;;;;;;;;;18.90;50.60;;;;;;10327934;28;976;-69
2023/04/21 12:27:46;;;;;;;;;;;18.90;51.20;;;;;;10327879;28;907;-68
2023/04/21 12:32:42;;;;;;;;;;;19.00;51.00;;;;;;10327847;28;833;-67
2023/04/21 12:37:37;;;;;;;;;;;19.00;51.00;;;;;;10327443;28;1902;-68
2023/04/21 12:42:33;;;;;;;;;;;18.90;50.90;;;;;;10327694;28;890;-67
2023/04/21 12:47:28;;;;;;;;;;;18.90;50.80;;;;;;10326926;28;771;-67
2023/04/21 12:52:24;;;;;;;;;;;18.90;51.00;;;;;;10326672;28;875;-67
2023/04/21 12:57:19;;;;;;;;;;;18.90;50.90;;;;;;10326718;28;1902;-67
2023/04/21 13:02:15;;;;;;;;;;;19.00;51.50;;;;;;10327089;28;874;-67
2023/04/21 13:07:11;;;;;;;;;;;19.00;50.90;;;;;;10326206;28;838;-67
2023/04/21 13:12:06;;;;;;;;;;;19.00;51.10;;;;;;10325975;28;863;-67
2023/04/21 13:17:01;;;;;;;;;;;19.00;51.10;;;;;;10326359;28;1899;-67
2023/04/21 13:21:57;;;;;;;;;;;19.00;50.90;;;;;;10325735;28;800;-67
2023/04/21 13:26:52;;;;;;;;;;;19.00;51.00;;;;;;10326843;28;900;-67
2023/04/21 13:31:47;;;;;;;;;;;19.10;50.80;;;;;;10326213;28;938;-67
2023/04/21 13:36:43;;;;;;;;;;;19.10;51.00;;;;;;10325316;28;1898;-69
2023/04/21 13:41:38;;;;;;;;;;;19.00;50.80;;;;;;10325293;28;871;-67
2023/04/21 13:46:33;;;;;;;;;;;19.00;51.00;;;;;;10325352;28;905;-67
2023/04/21 13:51:29;;;;;;;;;;;19.10;50.80;;;;;;10325670;28;786;-66
2023/04/21 13:56:24;;;;;;;;;;;19.10;50.90;;;;;;10324926;28;1961;-67
2023/04/21 14:01:20;;;;;;;;;;;19.10;51.10;;;;;;10325540;28;799;-67
2023/04/21 14:06:16;;;;;;;;;;;19.10;51.10;;;;;;10323090;28;1129;-67
2023/04/21 14:11:11;;;;;;;;;;;19.00;51.20;;;;;;10324084;28;1259;-67
2023/04/21 14:16:06;;;;;;;;;;;19.10;51.30;;;;;;10324330;28;1971;-67
2023/04/21 14:21:02;;;;;;;;;;;19.10;51.10;;;;;;10324866;28;807;-67
2023/04/21 14:25:57;;;;;;;;;;;19.10;51.20;;;;;;10326124;28;770;-68
2023/04/21 14:30:52;;;;;;;;;;;19.00;51.20;;;;;;10332493;28;864;-67
2023/04/21 14:35:48;;;;;;;;;;;19.00;51.20;;;;;;10331923;28;1963;-67
2023/04/21 14:40:43;;;;;;;;;;;19.10;51.20;;;;;;10332100;28;763;-67
2023/04/21 14:45:39;;;;;;;;;;;19.10;51.30;;;;;;10331506;28;825;-67
2023/04/21 14:50:35;;;;;;;;;;;19.00;51.20;;;;;;10331630;28;1162;-67
2023/04/21 14:55:30;;;;;;;;;;;19.10;51.40;;;;;;10331601;28;1894;-67
2023/04/21 15:00:26;;;;;;;;;;;19.10;51.30;;;;;;10330820;28;865;-67
2023/04/21 15:05:21;;;;;;;;;;;19.10;51.60;;;;;;10332066;28;920;-67
2023/04/21 15:10:17;;;;;;;;;;;19.10;51.70;;;;;;10331661;28;938;-67
2023/04/21 15:15:12;;;;;;;;;;;19.10;51.70;;;;;;10330931;28;1988;-67
2023/04/21 15:20:09;;;;;;;;;;;19.10;51.80;;;;;;10331299;28;933;-66
2023/04/21 15:25:04;;;;;;;;;;;19.10;51.70;;;;;;10330570;28;1006;-67
2023/04/21 15:30:00;;;;;;;;;;;19.10;51.70;;;;;;10330293;28;835;-67
2023/04/21 15:34:55;;;;;;;;;;;19.10;51.70;;;;;;10329971;28;1894;-67
2023/04/21 15:39:50;;;;;;;;;;;19.10;51.60;;;;;;10329688;28;851;-67
2023/04/21 15:44:46;;;;;;;;;;;19.10;51.50;;;;;;10330617;28;873;-67
2023/04/21 15:49:41;;;;;;;;;;;19.10;51.40;;;;;;10329751;28;866;-67
2023/04/21 15:54:36;;;;;;;;;;;19.10;51.40;;;;;;10329274;28;1906;-66
2023/04/21 15:59:32;;;;;;;;;;;19.10;51.30;;;;;;10329098;28;972;-66
2023/04/21 16:04:27;;;;;;;;;;;19.10;51.20;;;;;;10328357;28;830;-67
2023/04/21 16:09:22;;;;;;;;;;;19.10;51.10;;;;;;10329064;28;972;-67
2023/04/21 16:14:18;;;;;;;;;;;19.10;51.00;;;;;;10327907;28;1910;-67
2023/04/21 16:19:13;;;;;;;;;;;19.10;51.00;;;;;;10328352;28;754;-67
2023/04/21 16:24:09;;;;;;;;;;;19.10;51.00;;;;;;10328851;28;923;-67
2023/04/21 16:29:05;;;;;;;;;;;19.10;51.00;;;;;;10328506;28;1016;-67
2023/04/21 16:34:00;;;;;;;;;;;19.10;51.00;;;;;;10327714;28;1961;-67
2023/04/21 16:38:55;;;;;;;;;;;19.10;51.10;;;;;;10328148;28;898;-67
2023/04/21 16:43:51;;;;;;;;;;;19.10;51.00;;;;;;10327963;28;846;-67
2023/04/21 16:48:46;;;;;;;;;;;19.10;51.10;;;;;;10327288;28;955;-67
2023/04/21 16:53:42;;;;;;;;;;;19.00;50.90;;;;;;10326671;28;1905;-67
2023/04/21 16:58:38;;;;;;;;;;;19.00;50.90;;;;;;10327286;28;1313;-67
2023/04/21 17:03:36;;;;;;;;;;;19.10;51.10;;;;;;10326889;28;862;-67
2023/04/21 17:08:31;;;;;;;;;;;19.00;51.00;;;;;;10327677;28;897;-67
2023/04/21 17:13:27;;;;;;;;;;;19.00;50.80;;;;;;10326480;28;1914;-67
2023/04/21 17:18:22;;;;;;;;;;;19.10;50.90;;;;;;10326149;28;771;-67
2023/04/21 17:23:17;;;;;;;;;;;19.10;50.80;;;;;;10325416;28;936;-67
2023/04/21 17:28:14;;;;;;;;;;;19.10;50.90;;;;;;10325242;28;999;-67
2023/04/21 17:33:09;;;;;;;;;;;19.10;50.90;;;;;;10326290;28;1906;-67
2023/04/21 17:38:05;;;;;;;;;;;19.00;50.70;;;;;;10325610;28;969;-67
2023/04/21 17:43:00;;;;;;;;;;;19.10;50.80;;;;;;10325500;28;1662;-67
2023/04/21 17:47:56;;;;;;;;;;;19.10;50.80;;;;;;10325481;28;1006;-67
2023/04/21 17:52:51;;;;;;;;;;;19.10;50.70;;;;;;10325316;28;893;-67
2023/04/21 17:57:47;;;;;;;;;;;19.10;50.70;;;;;;10326117;28;1898;-67
2023/04/21 18:02:42;;;;;;;;;;;19.10;50.80;;;;;;10332795;28;889;-67
2023/04/21 18:07:37;;;;;;;;;;;19.10;50.70;;;;;;10334610;28;821;-67
2023/04/21 18:12:33;;;;;;;;;;;19.20;50.70;;;;;;10333874;28;951;-67
2023/04/21 18:17:28;;;;;;;;;;;19.10;50.70;;;;;;10333086;28;1961;-67
2023/04/21 18:22:23;;;;;;;;;;;19.10;50.60;;;;;;10333328;28;855;-67
2023/04/21 18:27:19;;;;;;;;;;;19.10;50.60;;;;;;10332665;28;1088;-67
2023/04/21 18:32:14;;;;;;;;;;;19.10;50.60;;;;;;10332769;28;1615;-67
2023/04/21 18:37:09;;;;;;;;;;;19.20;50.60;;;;;;10331766;28;1910;-67
2023/04/21 18:42:05;;;;;;;;;;;19.20;50.50;;;;;;10332064;28;902;-67
2023/04/21 18:47:00;;;;;;;;;;;19.20;50.60;;;;;;10331353;28;1239;-67
2023/04/21 18:51:56;;;;;;;;;;;19.20;50.60;;;;;;10331775;28;784;-67
2023/04/21 18:56:51;;;;;;;;;;;19.20;50.50;;;;;;10331613;28;1955;-67
2023/04/21 19:01:46;;;;;;;;;;;19.20;50.50;;;;;;10331407;28;999;-67
2023/04/21 19:06:42;;;;;;;;;;;19.10;50.60;;;;;;10331824;28;834;-67
2023/04/21 19:11:37;;;;;;;;;;;19.20;50.50;;;;;;10330351;28;747;-67
2023/04/21 19:16:32;;;;;;;;;;;19.20;50.50;;;;;;10331162;28;1910;-67
2023/04/21 19:21:29;;;;;;;;;;;19.20;50.50;;;;;;10330684;28;870;-67
2023/04/21 19:26:24;;;;;;;;;;;19.20;50.30;;;;;;10330446;28;1071;-67
2023/04/21 19:31:22;;;;;;;;;;;19.20;50.40;;;;;;10329657;28;882;-67
2023/04/21 19:36:17;;;;;;;;;;;19.20;50.50;;;;;;10330115;28;1910;-67
2023/04/21 19:41:12;;;;;;;;;;;19.20;50.40;;;;;;10330594;28;976;-67
2023/04/21 19:46:09;;;;;;;;;;;19.20;50.50;;;;;;10329196;28;830;-67
2023/04/21 19:51:04;;;;;;;;;;;19.20;50.50;;;;;;10329133;28;953;-67
2023/04/21 19:56:00;;;;;;;;;;;19.20;50.50;;;;;;10328980;28;1910;-67
2023/04/21 20:00:55;;;;;;;;;;;19.20;50.40;;;;;;10329748;28;1122;-67
2023/04/21 20:05:50;;;;;;;;;;;19.20;50.40;;;;;;10329118;28;774;-67
2023/04/21 20:10:46;;;;;;;;;;;19.20;50.40;;;;;;10328218;28;1054;-67
2023/04/21 20:15:41;;;;;;;;;;;19.20;50.30;;;;;;10328556;28;1910;-67
2023/04/21 20:20:37;;;;;;;;;;;19.20;50.40;;;;;;10329011;28;814;-67
2023/04/21 20:25:32;;;;;;;;;;;19.10;50.40;;;;;;10327183;28;852;-67
2023/04/21 20:30:27;;;;;;;;;;;19.10;50.30;;;;;;10327923;28;870;-67
2023/04/21 20:35:23;;;;;;;;;;;19.10;50.10;;;;;;10327684;28;1971;-67
2023/04/21 20:40:20;;;;;;;;;;;19.10;50.10;;;;;;10327578;28;853;-67
2023/04/21 20:45:16;;;;;;;;;;;19.10;50.00;;;;;;10327300;28;951;-67
2023/04/21 20:50:12;;;;;;;;;;;19.10;50.00;;;;;;10327727;28;932;-67
2023/04/21 20:55:08;;;;;;;;;;;19.10;50.00;;;;;;10326367;28;1901;-67
2023/04/21 21:00:08;;;;;;;;;;;19.00;50.10;;;;;;10327435;28;862;-67
2023/04/21 21:05:03;;;;;;;;;;;19.00;50.20;;;;;;10326621;28;931;-67
2023/04/21 21:09:59;;;;;;;;;;;19.00;50.10;;;;;;10326457;28;770;-73
2023/04/21 21:14:54;;;;;;;;;;;19.10;50.20;;;;;;10326128;28;1918;-73
2023/04/21 21:19:49;;;;;;;;;;;19.00;50.20;;;;;;10326661;28;849;-74
2023/04/21 21:24:45;;;;;;;;;;;19.00;50.20;;;;;;10325789;28;963;-74
2023/04/21 21:29:40;;;;;;;;;;;19.00;50.20;;;;;;10326491;28;814;-74
2023/04/21 21:34:36;;;;;;;;;;;19.00;50.20;;;;;;10326010;28;1902;-74
2023/04/21 21:39:31;;;;;;;;;;;19.00;50.20;;;;;;10325575;28;910;-74
2023/04/21 21:44:27;;;;;;;;;;;19.00;50.20;;;;;;10325562;28;846;-74
2023/04/21 21:49:22;;;;;;;;;;;19.00;50.10;;;;;;10325401;28;754;-74
2023/04/21 21:54:17;;;;;;;;;;;19.00;50.10;;;;;;10325270;28;1897;-74
2023/04/21 21:59:13;;;;;;;;;;;19.00;50.10;;;;;;10325705;28;1412;-74
2023/04/21 22:04:09;;;;;;;;;;;19.10;50.00;;;;;;10325207;28;1064;-74
2023/04/21 22:09:05;;;;;;;;;;;19.00;50.00;;;;;;10325142;28;881;-74
2023/04/21 22:14:00;;;;;;;;;;;19.00;49.90;;;;;;10325788;28;1988;-74
2023/04/21 22:18:58;;;;;;;;;;;19.10;50.00;;;;;;10324258;28;913;-74
2023/04/21 22:23:53;;;;;;;;;;;19.00;49.90;;;;;;10324765;28;864;-74
2023/04/21 22:28:50;;;;;;;;;;;19.00;49.90;;;;;;10324705;28;885;-74
2023/04/21 22:33:46;;;;;;;;;;;19.00;49.90;;;;;;10324562;28;1975;-74
2023/04/21 22:38:42;;;;;;;;;;;19.00;49.90;;;;;;10324433;28;900;-74
2023/04/21 22:43:37;;;;;;;;;;;19.00;49.90;;;;;;10324418;28;935;-74
2023/04/21 22:48:35;;;;;;;;;;;19.00;49.80;;;;;;10329213;28;883;-74
2023/04/21 22:53:30;;;;;;;;;;;19.10;49.90;;;;;;10331097;28;2028;-75
2023/04/21 22:58:25;;;;;;;;;;;19.00;49.80;;;;;;10331871;28;1298;-74
2023/04/21 23:03:21;;;;;;;;;;;19.00;49.80;;;;;;10330965;28;1437;-74
2023/04/21 23:08:16;;;;;;;;;;;19.00;49.80;;;;;;10331265;28;876;-74
2023/04/21 23:13:12;;;;;;;;;;;19.00;49.70;;;;;;10330947;28;1898;-74
2023/04/21 23:18:07;;;;;;;;;;;19.10;49.80;;;;;;10331788;28;856;-74
2023/04/21 23:23:02;;;;;;;;;;;19.10;49.80;;;;;;10331886;28;853;-74
2023/04/21 23:27:58;;;;;;;;;;;19.10;49.70;;;;;;10331121;28;799;-74
2023/04/21 23:32:53;;;;;;;;;;;19.10;49.70;;;;;;10330352;28;873;-74
2023/04/21 23:37:48;;;;;;;;;;;19.00;49.60;;;;;;10329524;28;1906;-75
2023/04/21 23:42:44;;;;;;;;;;;19.00;49.80;;;;;;10329522;28;938;-75
2023/04/21 23:47:39;;;;;;;;;;;19.00;49.70;;;;;;10329724;28;918;-74
2023/04/21 23:52:34;;;;;;;;;;;19.10;49.80;;;;;;10329722;28;924;-74
2023/04/21 23:57:30;;;;;;;;;;;19.00;49.70;;;;;;10328580;28;1901;-74
